sensor_id;sensor_type;location;lat;lon;timestamp;pressure;altitude;pressure_sealevel;temperature;humidity
71239;BME280;61342;51.442;7.370;2023-04-08T00:00:37;100632.50;;;8.38;100.00
71239;BME280;61342;51.442;7.370;2023-04-08T00:01:37;100632.50;;;8.38;100.00
71239;BME280;61342;51.442;7.370;2023-04-08T00:02:38;100630.91;;;8.37;100.00
71239;BME280;61342;51.442;7.370;2023-04-08T00:03:38;100639.22;;;8.35;100.00
71239;BME280;61342;51.442;7.370;2023-04-08T00:04:38;100631.16;;;8.33;100.00
71239;BME280;61342;51.442;7.370;2023-04-08T00:05:39;100633.47;;;8.29;100.00
71239;BME280;61342;51.442;7.370;2023-04-08T00:06:40;100629.00;;;8.28;100.00
71239;BME280;61342;51.442;7.370;2023-04-08T00:07:40;100636.31;;;8.29;100.00
71239;BME280;61342;51.442;7.370;2023-04-08T00:08:40;100631.31;;;8.24;100.00
71239;BME280;61342;51.442;7.370;2023-04-08T00:09:41;100625.81;;;8.21;100.00
71239;BME280;61342;51.442;7.370;2023-04-08T00:10:41;100634.69;;;8.23;100.00
71239;BME280;61342;51.442;7.370;2023-04-08T00:11:47;100632.84;;;8.20;100.00
71239;BME280;61342;51.442;7.370;2023-04-08T00:12:47;100641.44;;;8.20;100.00
71239;BME280;61342;51.442;7.370;2023-04-08T00:13:48;100638.56;;;8.20;100.00
71239;BME280;61342;51.442;7.370;2023-04-08T00:14:48;100636.69;;;8.17;100.00
71239;BME280;61342;51.442;7.370;2023-04-08T00:15:48;100639.28;;;8.15;100.00
71239;BME280;61342;51.442;7.370;2023-04-08T00:16:49;100635.31;;;8.12;100.00
71239;BME280;61342;51.442;7.370;2023-04-08T00:17:49;100644.41;;;8.11;100.00
71239;BME280;61342;51.442;7.370;2023-04-08T00:18:50;100638.91;;;8.07;100.00
71239;BME280;61342;51.442;7.370;2023-04-08T00:19:51;100629.69;;;7.98;100.00
71239;BME280;61342;51.442;7.370;2023-04-08T00:20:51;100639.91;;;8.04;100.00
71239;BME280;61342;51.442;7.370;2023-04-08T00:21:52;100636.19;;;7.99;100.00
71239;BME280;61342;51.442;7.370;2023-04-08T00:22:52;100641.72;;;8.02;100.00
71239;BME280;61342;51.442;7.370;2023-04-08T00:23:53;100628.91;;;7.98;100.00
71239;BME280;61342;51.442;7.370;2023-04-08T00:24:53;100642.22;;;8.01;100.00
71239;BME280;61342;51.442;7.370;2023-04-08T00:25:53;100642.72;;;7.99;100.00
71239;BME280;61342;51.442;7.370;2023-04-08T00:26:54;100635.88;;;7.91;100.00
71239;BME280;61342;51.442;7.370;2023-04-08T00:27:55;100645.53;;;7.94;100.00
71239;BME280;61342;51.442;7.370;2023-04-08T00:28:55;100651.25;;;7.94;100.00
71239;BME280;61342;51.442;7.370;2023-04-08T00:29:56;100648.09;;;7.92;100.00
71239;BME280;61342;51.442;7.370;2023-04-08T00:30:56;100645.44;;;7.88;100.00
71239;BME280;61342;51.442;7.370;2023-04-08T00:31:57;100655.59;;;7.89;100.00
71239;BME280;61342;51.442;7.370;2023-04-08T00:32:57;100654.81;;;7.89;100.00
71239;BME280;61342;51.442;7.370;2023-04-08T00:33:57;100642.50;;;7.83;100.00
71239;BME280;61342;51.442;7.370;2023-04-08T00:34:58;100646.94;;;7.84;100.00
71239;BME280;61342;51.442;7.370;2023-04-08T00:35:59;100656.03;;;7.82;100.00
71239;BME280;61342;51.442;7.370;2023-04-08T00:36:59;100649.75;;;7.78;100.00
71239;BME280;61342;51.442;7.370;2023-04-08T00:38:00;100652.09;;;7.80;100.00
71239;BME280;61342;51.442;7.370;2023-04-08T00:39:01;100651.53;;;7.76;100.00
71239;BME280;61342;51.442;7.370;2023-04-08T00:40:03;100653.13;;;7.77;100.00
71239;BME280;61342;51.442;7.370;2023-04-08T00:41:04;100653.31;;;7.73;100.00
71239;BME280;61342;51.442;7.370;2023-04-08T00:42:05;100649.63;;;7.67;100.00
71239;BME280;61342;51.442;7.370;2023-04-08T00:43:05;100662.41;;;7.72;100.00
71239;BME280;61342;51.442;7.370;2023-04-08T00:44:06;100647.53;;;7.68;100.00
71239;BME280;61342;51.442;7.370;2023-04-08T00:45:07;100656.88;;;7.68;100.00
71239;BME280;61342;51.442;7.370;2023-04-08T00:46:08;100651.66;;;7.67;100.00
71239;BME280;61342;51.442;7.370;2023-04-08T00:47:11;100661.25;;;7.64;100.00
71239;BME280;61342;51.442;7.370;2023-04-08T00:48:12;100650.03;;;7.60;100.00
71239;BME280;61342;51.442;7.370;2023-04-08T00:49:13;100652.38;;;7.62;100.00
71239;BME280;61342;51.442;7.370;2023-04-08T00:50:13;100643.22;;;7.58;100.00
71239;BME280;61342;51.442;7.370;2023-04-08T00:51:13;100645.56;;;7.59;100.00
71239;BME280;61342;51.442;7.370;2023-04-08T00:52:15;100644.22;;;7.55;100.00
71239;BME280;61342;51.442;7.370;2023-04-08T00:53:17;100653.13;;;7.57;100.00
71239;BME280;61342;51.442;7.370;2023-04-08T00:54:18;100654.41;;;7.56;100.00
71239;BME280;61342;51.442;7.370;2023-04-08T00:55:18;100656.69;;;7.52;100.00
71239;BME280;61342;51.442;7.370;2023-04-08T00:56:18;100649.69;;;7.53;100.00
71239;BME280;61342;51.442;7.370;2023-04-08T00:57:20;100653.81;;;7.52;100.00
71239;BME280;61342;51.442;7.370;2023-04-08T00:58:21;100650.66;;;7.50;100.00
71239;BME280;61342;51.442;7.370;2023-04-08T00:59:22;100650.38;;;7.48;100.00
71239;BME280;61342;51.442;7.370;2023-04-08T01:00:22;100652.44;;;7.47;100.00
71239;BME280;61342;51.442;7.370;2023-04-08T01:03:26;100649.75;;;7.39;100.00
71239;BME280;61342;51.442;7.370;2023-04-08T01:06:09;100662.38;;;7.32;100.00
71239;BME280;61342;51.442;7.370;2023-04-08T01:07:14;100654.56;;;7.33;100.00
71239;BME280;61342;51.442;7.370;2023-04-08T01:08:16;100659.53;;;7.32;100.00
71239;BME280;61342;51.442;7.370;2023-04-08T01:09:18;100660.78;;;7.31;100.00
71239;BME280;61342;51.442;7.370;2023-04-08T01:10:23;100652.91;;;7.26;100.00
71239;BME280;61342;51.442;7.370;2023-04-08T01:11:28;100661.00;;;7.28;100.00
71239;BME280;61342;51.442;7.370;2023-04-08T01:12:32;100663.06;;;7.27;100.00
71239;BME280;61342;51.442;7.370;2023-04-08T01:13:39;100659.13;;;7.25;100.00
71239;BME280;61342;51.442;7.370;2023-04-08T01:14:42;100650.75;;;7.21;100.00
71239;BME280;61342;51.442;7.370;2023-04-08T01:15:44;100660.91;;;7.22;100.00
71239;BME280;61342;51.442;7.370;2023-04-08T01:16:45;100658.56;;;7.21;100.00
71239;BME280;61342;51.442;7.370;2023-04-08T01:17:47;100665.06;;;7.21;100.00
71239;BME280;61342;51.442;7.370;2023-04-08T01:18:49;100665.78;;;7.16;100.00
71239;BME280;61342;51.442;7.370;2023-04-08T01:19:53;100654.22;;;7.11;100.00
71239;BME280;61342;51.442;7.370;2023-04-08T01:21:05;100667.06;;;7.15;100.00
71239;BME280;61342;51.442;7.370;2023-04-08T01:22:28;100663.31;;;7.09;100.00
71239;BME280;61342;51.442;7.370;2023-04-08T01:25:00;100665.41;;;7.09;100.00
71239;BME280;61342;51.442;7.370;2023-04-08T01:26:01;100669.53;;;7.08;100.00
71239;BME280;61342;51.442;7.370;2023-04-08T01:27:02;100663.53;;;7.06;100.00
71239;BME280;61342;51.442;7.370;2023-04-08T01:28:12;100664.81;;;7.05;100.00
71239;BME280;61342;51.442;7.370;2023-04-08T01:29:14;100673.06;;;7.03;100.00
71239;BME280;61342;51.442;7.370;2023-04-08T01:30:19;100670.72;;;7.01;100.00
71239;BME280;61342;51.442;7.370;2023-04-08T01:31:21;100671.22;;;7.00;100.00
71239;BME280;61342;51.442;7.370;2023-04-08T01:32:24;100669.94;;;7.01;100.00
71239;BME280;61342;51.442;7.370;2023-04-08T01:33:27;100669.63;;;6.99;100.00
71239;BME280;61342;51.442;7.370;2023-04-08T01:34:28;100670.13;;;6.97;100.00
71239;BME280;61342;51.442;7.370;2023-04-08T01:35:30;100671.41;;;6.96;100.00
71239;BME280;61342;51.442;7.370;2023-04-08T01:36:31;100668.56;;;6.96;100.00
71239;BME280;61342;51.442;7.370;2023-04-08T01:37:35;100675.25;;;6.93;100.00
71239;BME280;61342;51.442;7.370;2023-04-08T01:38:38;100676.06;;;6.94;100.00
71239;BME280;61342;51.442;7.370;2023-04-08T01:39:39;100674.69;;;6.89;100.00
71239;BME280;61342;51.442;7.370;2023-04-08T01:40:41;100677.84;;;6.91;100.00
71239;BME280;61342;51.442;7.370;2023-04-08T01:41:42;100674.69;;;6.89;100.00
71239;BME280;61342;51.442;7.370;2023-04-08T01:42:44;100679.13;;;6.90;100.00
71239;BME280;61342;51.442;7.370;2023-04-08T01:43:45;100675.69;;;6.87;100.00
71239;BME280;61342;51.442;7.370;2023-04-08T01:44:46;100667.03;;;6.81;100.00
71239;BME280;61342;51.442;7.370;2023-04-08T01:45:48;100679.03;;;6.85;100.00
71239;BME280;61342;51.442;7.370;2023-04-08T01:46:49;100678.72;;;6.83;100.00
71239;BME280;61342;51.442;7.370;2023-04-08T01:47:51;100675.59;;;6.81;100.00
71239;BME280;61342;51.442;7.370;2023-04-08T01:48:53;100670.88;;;6.78;100.00
71239;BME280;61342;51.442;7.370;2023-04-08T01:49:55;100671.66;;;6.79;100.00
71239;BME280;61342;51.442;7.370;2023-04-08T01:50:56;100675.50;;;6.76;100.00
71239;BME280;61342;51.442;7.370;2023-04-08T01:51:59;100679.44;;;6.78;100.00
71239;BME280;61342;51.442;7.370;2023-04-08T01:53:01;100675.97;;;6.74;100.00
71239;BME280;61342;51.442;7.370;2023-04-08T01:54:04;100679.63;;;6.75;100.00
71239;BME280;61342;51.442;7.370;2023-04-08T01:55:04;100680.63;;;6.72;100.00
71239;BME280;61342;51.442;7.370;2023-04-08T01:56:08;100674.59;;;6.70;100.00
71239;BME280;61342;51.442;7.370;2023-04-08T01:57:13;100675.88;;;6.69;100.00
71239;BME280;61342;51.442;7.370;2023-04-08T01:58:19;100677.66;;;6.66;100.00
71239;BME280;61342;51.442;7.370;2023-04-08T01:59:20;100676.59;;;6.64;100.00
71239;BME280;61342;51.442;7.370;2023-04-08T02:00:25;100675.50;;;6.61;100.00
71239;BME280;61342;51.442;7.370;2023-04-08T02:01:27;100671.56;;;6.59;100.00
71239;BME280;61342;51.442;7.370;2023-04-08T02:02:29;100674.44;;;6.59;100.00
71239;BME280;61342;51.442;7.370;2023-04-08T02:03:31;100669.72;;;6.56;100.00
71239;BME280;61342;51.442;7.370;2023-04-08T02:04:34;100669.72;;;6.56;100.00
71239;BME280;61342;51.442;7.370;2023-04-08T02:05:34;100664.09;;;6.47;100.00
71239;BME280;61342;51.442;7.370;2023-04-08T02:06:36;100677.47;;;6.55;100.00
71239;BME280;61342;51.442;7.370;2023-04-08T02:07:37;100664.69;;;6.51;100.00
71239;BME280;61342;51.442;7.370;2023-04-08T02:08:37;100649.91;;;6.38;100.00
71239;BME280;61342;51.442;7.370;2023-04-08T02:09:37;100670.56;;;6.47;100.00
71239;BME280;61342;51.442;7.370;2023-04-08T02:10:38;100666.44;;;6.48;100.00
71239;BME280;61342;51.442;7.370;2023-04-08T02:11:38;100668.22;;;6.46;100.00
71239;BME280;61342;51.442;7.370;2023-04-08T02:12:38;100666.13;;;6.46;100.00
71239;BME280;61342;51.442;7.370;2023-04-08T02:13:39;100666.34;;;6.43;100.00
71239;BME280;61342;51.442;7.370;2023-04-08T02:14:39;100664.47;;;6.40;100.00
71239;BME280;61342;51.442;7.370;2023-04-08T02:15:42;100670.16;;;6.40;100.00
71239;BME280;61342;51.442;7.370;2023-04-08T02:16:53;100671.47;;;6.39;100.00
71239;BME280;61342;51.442;7.370;2023-04-08T02:18:04;100671.97;;;6.37;100.00
71239;BME280;61342;51.442;7.370;2023-04-08T02:19:14;100678.63;;;6.34;100.00
71239;BME280;61342;51.442;7.370;2023-04-08T02:20:16;100672.44;;;6.36;100.00
71239;BME280;61342;51.442;7.370;2023-04-08T02:21:21;100666.34;;;6.29;100.00
71239;BME280;61342;51.442;7.370;2023-04-08T02:23:02;100674.41;;;6.30;100.00
71239;BME280;61342;51.442;7.370;2023-04-08T02:24:03;100670.97;;;6.26;100.00
71239;BME280;61342;51.442;7.370;2023-04-08T02:25:08;100677.44;;;6.27;100.00
71239;BME280;61342;51.442;7.370;2023-04-08T02:26:14;100678.25;;;6.27;100.00
71239;BME280;61342;51.442;7.370;2023-04-08T02:27:16;100681.56;;;6.26;100.00
71239;BME280;61342;51.442;7.370;2023-04-08T02:28:17;100681.09;;;6.27;100.00
71239;BME280;61342;51.442;7.370;2023-04-08T02:29:18;100689.34;;;6.25;100.00
71239;BME280;61342;51.442;7.370;2023-04-08T02:30:20;100686.50;;;6.25;100.00
71239;BME280;61342;51.442;7.370;2023-04-08T02:31:21;100684.16;;;6.24;100.00
71239;BME280;61342;51.442;7.370;2023-04-08T02:32:23;100685.91;;;6.21;100.00
71239;BME280;61342;51.442;7.370;2023-04-08T02:33:26;100684.63;;;6.22;100.00
71239;BME280;61342;51.442;7.370;2023-04-08T02:34:30;100691.63;;;6.21;100.00
71239;BME280;61342;51.442;7.370;2023-04-08T02:35:31;100696.53;;;6.21;100.00
71239;BME280;61342;51.442;7.370;2023-04-08T02:36:33;100689.25;;;6.20;100.00
71239;BME280;61342;51.442;7.370;2023-04-08T02:37:33;100692.59;;;6.18;100.00
71239;BME280;61342;51.442;7.370;2023-04-08T02:38:34;100698.00;;;6.16;100.00
71239;BME280;61342;51.442;7.370;2023-04-08T02:39:34;100704.03;;;6.18;100.00
71239;BME280;61342;51.442;7.370;2023-04-08T02:40:35;100697.81;;;6.20;100.00
71239;BME280;61342;51.442;7.370;2023-04-08T02:41:36;100696.72;;;6.17;100.00
71239;BME280;61342;51.442;7.370;2023-04-08T02:42:36;100703.69;;;6.16;100.00
71239;BME280;61342;51.442;7.370;2023-04-08T02:43:36;100694.84;;;6.14;100.00
71239;BME280;61342;51.442;7.370;2023-04-08T02:44:37;100697.22;;;6.16;100.00
71239;BME280;61342;51.442;7.370;2023-04-08T02:45:42;100690.41;;;6.13;100.00
71239;BME280;61342;51.442;7.370;2023-04-08T02:46:43;100689.16;;;6.14;100.00
71239;BME280;61342;51.442;7.370;2023-04-08T02:47:43;100697.22;;;6.16;100.00
71239;BME280;61342;51.442;7.370;2023-04-08T02:48:43;100693.59;;;6.15;100.00
71239;BME280;61342;51.442;7.370;2023-04-08T02:49:44;100699.28;;;6.15;100.00
71239;BME280;61342;51.442;7.370;2023-04-08T02:50:44;100698.50;;;6.15;100.00
71239;BME280;61342;51.442;7.370;2023-04-08T02:51:44;100691.69;;;6.12;100.00
71239;BME280;61342;51.442;7.370;2023-04-08T02:52:45;100688.84;;;6.12;100.00
71239;BME280;61342;51.442;7.370;2023-04-08T02:53:48;100690.09;;;6.11;100.00
71239;BME280;61342;51.442;7.370;2023-04-08T02:54:48;100696.91;;;6.14;100.00
71239;BME280;61342;51.442;7.370;2023-04-08T02:55:49;100698.50;;;6.15;100.00
71239;BME280;61342;51.442;7.370;2023-04-08T02:56:49;100692.97;;;6.11;100.00
71239;BME280;61342;51.442;7.370;2023-04-08T02:57:49;100683.63;;;6.11;100.00
71239;BME280;61342;51.442;7.370;2023-04-08T02:58:50;100691.69;;;6.12;100.00
71239;BME280;61342;51.442;7.370;2023-04-08T02:59:51;100699.47;;;6.12;100.00
71239;BME280;61342;51.442;7.370;2023-04-08T03:00:51;100708.31;;;6.14;100.00
71239;BME280;61342;51.442;7.370;2023-04-08T03:01:51;100691.91;;;6.09;100.00
71239;BME280;61342;51.442;7.370;2023-04-08T03:02:52;100689.91;;;6.00;100.00
71239;BME280;61342;51.442;7.370;2023-04-08T03:03:52;100700.75;;;6.11;100.00
71239;BME280;61342;51.442;7.370;2023-04-08T03:04:53;100704.09;;;6.09;100.00
71239;BME280;61342;51.442;7.370;2023-04-08T03:05:56;100703.09;;;6.12;100.00
71239;BME280;61342;51.442;7.370;2023-04-08T03:06:57;100704.38;;;6.11;100.00
71239;BME280;61342;51.442;7.370;2023-04-08T03:07:57;100708.53;;;6.10;100.00
71239;BME280;61342;51.442;7.370;2023-04-08T03:08:57;100702.81;;;6.10;100.00
71239;BME280;61342;51.442;7.370;2023-04-08T03:09:58;100693.34;;;6.04;100.00
71239;BME280;61342;51.442;7.370;2023-04-08T03:10:58;100700.63;;;6.05;100.00
71239;BME280;61342;51.442;7.370;2023-04-08T03:11:59;100708.22;;;6.08;100.00
71239;BME280;61342;51.442;7.370;2023-04-08T03:12:59;100699.06;;;6.04;100.00
71239;BME280;61342;51.442;7.370;2023-04-08T03:14:00;100702.50;;;6.08;100.00
71239;BME280;61342;51.442;7.370;2023-04-08T03:15:00;100699.66;;;6.08;100.00
71239;BME280;61342;51.442;7.370;2023-04-08T03:16:02;100705.34;;;6.08;100.00
71239;BME280;61342;51.442;7.370;2023-04-08T03:17:02;100699.06;;;6.04;100.00
71239;BME280;61342;51.442;7.370;2023-04-08T03:18:03;100703.19;;;6.03;100.00
71239;BME280;61342;51.442;7.370;2023-04-08T03:19:03;100706.03;;;6.03;100.00
71239;BME280;61342;51.442;7.370;2023-04-08T03:20:04;100695.91;;;6.02;100.00
71239;BME280;61342;51.442;7.370;2023-04-08T03:21:05;100706.03;;;6.03;100.00
71239;BME280;61342;51.442;7.370;2023-04-08T03:22:05;100709.69;;;6.04;100.00
71239;BME280;61342;51.442;7.370;2023-04-08T03:23:06;100692.81;;;5.91;100.00
71239;BME280;61342;51.442;7.370;2023-04-08T03:24:06;100697.25;;;5.92;100.00
71239;BME280;61342;51.442;7.370;2023-04-08T03:25:07;100698.84;;;5.93;100.00
71239;BME280;61342;51.442;7.370;2023-04-08T03:26:07;100711.13;;;5.99;100.00
71239;BME280;61342;51.442;7.370;2023-04-08T03:27:08;100708.28;;;5.99;100.00
71239;BME280;61342;51.442;7.370;2023-04-08T03:28:08;100690.66;;;5.86;100.00
71239;BME280;61342;51.442;7.370;2023-04-08T03:29:08;100708.28;;;5.99;100.00
71239;BME280;61342;51.442;7.370;2023-04-08T03:30:09;100695.97;;;5.93;100.00
71239;BME280;61342;51.442;7.370;2023-04-08T03:31:10;100704.38;;;5.97;100.00
71239;BME280;61342;51.442;7.370;2023-04-08T03:32:10;100697.56;;;5.94;100.00
71239;BME280;61342;51.442;7.370;2023-04-08T03:33:10;100704.38;;;5.97;100.00
71239;BME280;61342;51.442;7.370;2023-04-08T03:34:11;100708.00;;;5.97;100.00
71239;BME280;61342;51.442;7.370;2023-04-08T03:35:11;100712.94;;;5.97;100.00
71239;BME280;61342;51.442;7.370;2023-04-08T03:36:12;100712.13;;;5.96;100.00
71239;BME280;61342;51.442;7.370;2023-04-08T03:37:12;100701.09;;;5.89;100.00
71239;BME280;61342;51.442;7.370;2023-04-08T03:38:12;100708.66;;;5.92;100.00
71239;BME280;61342;51.442;7.370;2023-04-08T03:39:13;100711.53;;;5.92;100.00
71239;BME280;61342;51.442;7.370;2023-04-08T03:40:13;100708.66;;;5.92;100.00
71239;BME280;61342;51.442;7.370;2023-04-08T03:41:13;100714.09;;;5.90;100.00
71239;BME280;61342;51.442;7.370;2023-04-08T03:42:14;100714.38;;;5.92;100.00
71239;BME280;61342;51.442;7.370;2023-04-08T03:43:14;100713.88;;;5.94;100.00
71239;BME280;61342;51.442;7.370;2023-04-08T03:44:15;100702.53;;;5.85;100.00
71239;BME280;61342;51.442;7.370;2023-04-08T03:45:15;100714.53;;;5.89;100.00
71239;BME280;61342;51.442;7.370;2023-04-08T03:46:15;100704.22;;;5.91;100.00
71239;BME280;61342;51.442;7.370;2023-04-08T03:47:16;100705.53;;;5.90;100.00
71239;BME280;61342;51.442;7.370;2023-04-08T03:48:16;100704.13;;;5.86;100.00
71239;BME280;61342;51.442;7.370;2023-04-08T03:49:16;100709.66;;;5.89;100.00
71239;BME280;61342;51.442;7.370;2023-04-08T03:50:17;100709.66;;;5.89;100.00
71239;BME280;61342;51.442;7.370;2023-04-08T03:51:17;100708.06;;;5.88;100.00
71239;BME280;61342;51.442;7.370;2023-04-08T03:52:17;100702.25;;;5.83;100.00
71239;BME280;61342;51.442;7.370;2023-04-08T03:53:18;100704.94;;;5.86;100.00
71239;BME280;61342;51.442;7.370;2023-04-08T03:54:18;100716.94;;;5.90;100.00
71239;BME280;61342;51.442;7.370;2023-04-08T03:55:18;100708.56;;;5.87;100.00
71239;BME280;61342;51.442;7.370;2023-04-08T03:56:19;100707.47;;;5.84;100.00
71239;BME280;61342;51.442;7.370;2023-04-08T03:57:19;100707.28;;;5.88;100.00
71239;BME280;61342;51.442;7.370;2023-04-08T03:58:22;100704.19;;;5.77;100.00
71239;BME280;61342;51.442;7.370;2023-04-08T03:59:22;100717.88;;;5.87;100.00
71239;BME280;61342;51.442;7.370;2023-04-08T04:00:23;100726.16;;;5.85;100.00
71239;BME280;61342;51.442;7.370;2023-04-08T04:01:24;100711.41;;;5.87;100.00
71239;BME280;61342;51.442;7.370;2023-04-08T04:02:24;100706.38;;;5.82;100.00
71239;BME280;61342;51.442;7.370;2023-04-08T04:03:25;100703.34;;;5.85;100.00
71239;BME280;61342;51.442;7.370;2023-04-08T04:04:26;100712.19;;;5.87;100.00
71239;BME280;61342;51.442;7.370;2023-04-08T04:05:26;100713.16;;;5.84;100.00
71239;BME280;61342;51.442;7.370;2023-04-08T04:06:26;100714.75;;;5.85;100.00
71239;BME280;61342;51.442;7.370;2023-04-08T04:07:27;100713.16;;;5.84;100.00
71239;BME280;61342;51.442;7.370;2023-04-08T04:08:30;100712.56;;;5.80;100.00
71239;BME280;61342;51.442;7.370;2023-04-08T04:09:30;100726.16;;;5.85;100.00
71239;BME280;61342;51.442;7.370;2023-04-08T04:10:31;100716.34;;;5.86;100.00
71239;BME280;61342;51.442;7.370;2023-04-08T04:11:33;100707.84;;;5.77;100.00
71239;BME280;61342;51.442;7.370;2023-04-08T04:12:33;100723.78;;;5.84;100.00
71239;BME280;61342;51.442;7.370;2023-04-08T04:13:34;100719.34;;;5.83;100.00
71239;BME280;61342;51.442;7.370;2023-04-08T04:14:34;100723.78;;;5.84;100.00
71239;BME280;61342;51.442;7.370;2023-04-08T04:15:40;100723.19;;;5.80;100.00
71239;BME280;61342;51.442;7.370;2023-04-08T04:16:41;100709.72;;;5.71;100.00
71239;BME280;61342;51.442;7.370;2023-04-08T04:17:41;100716.06;;;5.75;100.00
71239;BME280;61342;51.442;7.370;2023-04-08T04:18:41;100723.19;;;5.80;100.00
71239;BME280;61342;51.442;7.370;2023-04-08T04:19:42;100719.84;;;5.81;100.00
71239;BME280;61342;51.442;7.370;2023-04-08T04:20:42;100722.69;;;5.81;100.00
71239;BME280;61342;51.442;7.370;2023-04-08T04:21:43;100720.84;;;5.78;100.00
71239;BME280;61342;51.442;7.370;2023-04-08T04:22:43;100725.72;;;5.78;100.00
71239;BME280;61342;51.442;7.370;2023-04-08T04:23:44;100718.44;;;5.77;100.00
71239;BME280;61342;51.442;7.370;2023-04-08T04:24:48;100726.53;;;5.78;100.00
71239;BME280;61342;51.442;7.370;2023-04-08T04:25:49;100727.00;;;5.77;100.00
71239;BME280;61342;51.442;7.370;2023-04-08T04:26:49;100721.91;;;5.81;100.00
71239;BME280;61342;51.442;7.370;2023-04-08T04:27:49;100726.81;;;5.80;100.00
71239;BME280;61342;51.442;7.370;2023-04-08T04:28:50;100732.03;;;5.82;100.00
71239;BME280;61342;51.442;7.370;2023-04-08T04:29:50;100724.94;;;5.77;100.00
71239;BME280;61342;51.442;7.370;2023-04-08T04:30:50;100734.09;;;5.81;100.00
71239;BME280;61342;51.442;7.370;2023-04-08T04:31:51;100723.19;;;5.80;100.00
71239;BME280;61342;51.442;7.370;2023-04-08T04:32:51;100734.09;;;5.81;100.00
71239;BME280;61342;51.442;7.370;2023-04-08T04:33:52;100725.25;;;5.79;100.00
71239;BME280;61342;51.442;7.370;2023-04-08T04:34:52;100721.59;;;5.79;100.00
71239;BME280;61342;51.442;7.370;2023-04-08T04:35:52;100733.13;;;5.84;100.00
71239;BME280;61342;51.442;7.370;2023-04-08T04:36:53;100726.03;;;5.80;100.00
71239;BME280;61342;51.442;7.370;2023-04-08T04:37:53;100727.91;;;5.83;100.00
71239;BME280;61342;51.442;7.370;2023-04-08T04:38:53;100735.97;;;5.84;100.00
71239;BME280;61342;51.442;7.370;2023-04-08T04:39:54;100733.91;;;5.85;100.00
71239;BME280;61342;51.442;7.370;2023-04-08T04:40:54;100736.47;;;5.83;100.00
71239;BME280;61342;51.442;7.370;2023-04-08T04:41:55;100735.50;;;5.86;100.00
71239;BME280;61342;51.442;7.370;2023-04-08T04:42:55;100738.06;;;5.84;100.00
71239;BME280;61342;51.442;7.370;2023-04-08T04:43:55;100738.53;;;5.82;100.00
71239;BME280;61342;51.442;7.370;2023-04-08T04:44:56;100734.41;;;5.83;100.00
71239;BME280;61342;51.442;7.370;2023-04-08T04:45:56;100735.22;;;5.84;100.00
71239;BME280;61342;51.442;7.370;2023-04-08T04:46:57;100740.41;;;5.85;100.00
71239;BME280;61342;51.442;7.370;2023-04-08T04:47:57;100731.53;;;5.83;100.00
71239;BME280;61342;51.442;7.370;2023-04-08T04:48:57;100739.16;;;5.86;100.00
71239;BME280;61342;51.442;7.370;2023-04-08T04:49:58;100742.28;;;5.88;100.00
71239;BME280;61342;51.442;7.370;2023-04-08T04:50:59;100736.31;;;5.86;100.00
71239;BME280;61342;51.442;7.370;2023-04-08T04:52:04;100750.56;;;5.86;100.00
71239;BME280;61342;51.442;7.370;2023-04-08T04:53:04;100746.41;;;5.87;100.00
71239;BME280;61342;51.442;7.370;2023-04-08T04:54:04;100742.28;;;5.88;100.00
71239;BME280;61342;51.442;7.370;2023-04-08T04:55:05;100748.00;;;5.88;100.00
71239;BME280;61342;51.442;7.370;2023-04-08T04:56:06;100732.63;;;5.86;100.00
71239;BME280;61342;51.442;7.370;2023-04-08T04:57:06;100737.84;;;5.87;100.00
71239;BME280;61342;51.442;7.370;2023-04-08T04:58:06;100742.28;;;5.88;100.00
71239;BME280;61342;51.442;7.370;2023-04-08T04:59:07;100749.09;;;5.91;100.00
71239;BME280;61342;51.442;7.370;2023-04-08T05:00:08;100747.22;;;5.88;100.00
71239;BME280;61342;51.442;7.370;2023-04-08T05:01:09;100751.94;;;5.91;100.00
71239;BME280;61342;51.442;7.370;2023-04-08T05:02:09;100749.09;;;5.91;100.00
71239;BME280;61342;51.442;7.370;2023-04-08T05:03:10;100742.28;;;5.88;100.00
71239;BME280;61342;51.442;7.370;2023-04-08T05:04:10;100747.00;;;5.91;100.00
71239;BME280;61342;51.442;7.370;2023-04-08T05:05:11;100747.00;;;5.91;100.00
71239;BME280;61342;51.442;7.370;2023-04-08T05:06:11;100747.00;;;5.91;100.00
71239;BME280;61342;51.442;7.370;2023-04-08T05:07:11;100750.97;;;5.94;100.00
71239;BME280;61342;51.442;7.370;2023-04-08T05:08:12;100750.97;;;5.94;100.00
71239;BME280;61342;51.442;7.370;2023-04-08T05:09:12;100746.84;;;5.95;100.00
71239;BME280;61342;51.442;7.370;2023-04-08T05:10:12;100757.47;;;5.94;100.00
71239;BME280;61342;51.442;7.370;2023-04-08T05:11:13;100757.47;;;5.94;100.00
71239;BME280;61342;51.442;7.370;2023-04-08T05:12:13;100753.31;;;5.95;100.00
71239;BME280;61342;51.442;7.370;2023-04-08T05:13:13;100746.06;;;5.94;100.00
71239;BME280;61342;51.442;7.370;2023-04-08T05:14:14;100742.00;;;5.86;100.00
71239;BME280;61342;51.442;7.370;2023-04-08T05:15:14;100739.44;;;5.88;100.00
71239;BME280;61342;51.442;7.370;2023-04-08T05:16:14;100753.03;;;5.93;100.00
71239;BME280;61342;51.442;7.370;2023-04-08T05:17:15;100754.63;;;5.94;100.00
71239;BME280;61342;51.442;7.370;2023-04-08T05:18:15;100748.13;;;5.94;100.00
71239;BME280;61342;51.442;7.370;2023-04-08T05:19:16;100757.47;;;5.94;100.00
71239;BME280;61342;51.442;7.370;2023-04-08T05:20:16;100749.69;;;5.95;100.00
71239;BME280;61342;51.442;7.370;2023-04-08T05:21:17;100760.63;;;5.96;100.00
71239;BME280;61342;51.442;7.370;2023-04-08T05:22:17;100743.88;;;5.89;100.00
71239;BME280;61342;51.442;7.370;2023-04-08T05:23:18;100754.41;;;5.98;100.00
71239;BME280;61342;51.442;7.370;2023-04-08T05:24:18;100755.72;;;5.97;100.00
71239;BME280;61342;51.442;7.370;2023-04-08T05:25:18;100752.06;;;5.96;100.00
71239;BME280;61342;51.442;7.370;2023-04-08T05:26:19;100759.63;;;5.99;100.00